Time;durP1;ratioP1;P1;durP2;ratioP2;P2;SDS_P1;SDS_P2;PMS_P1;PMS_P2;Temp;Humidity;BMP_temperature;BMP_pressure;BME280_temperature;BME280_humidity;BME280_pressure;Samples;Min_cycle;Max_cycle;Signal;HPM_P1;HPM_P2
2021/07/08 00:00:42;;;;;;;9.65;4.88;;;;;;;20.10;81.48;100140.47;3479554;28;20310;-43
2021/07/08 00:02:24;;;;;;;5.90;4.35;;;;;;;20.09;81.62;100132.59;3477814;28;20053;-44
2021/07/08 00:04:06;;;;;;;9.65;4.72;;;;;;;20.09;81.71;100137.84;3468572;28;20045;-44
2021/07/08 00:05:47;;;;;;;14.68;5.22;;;;;;;20.06;81.48;100138.78;3471797;28;20498;-44
2021/07/08 00:07:28;;;;;;;12.98;4.85;;;;;;;20.04;81.72;100135.31;3468249;28;20057;-43
2021/07/08 00:09:10;;;;;;;8.85;4.50;;;;;;;20.00;81.39;100133.63;3477416;28;20524;-44
2021/07/08 00:10:55;;;;;;;9.50;4.88;;;;;;;19.97;81.89;100132.81;3480218;28;20526;-44
2021/07/08 00:12:38;;;;;;;12.25;5.05;;;;;;;19.96;82.19;100131.94;3479569;28;20053;-44
2021/07/08 00:14:19;;;;;;;10.05;4.93;;;;;;;19.96;82.24;100129.31;3475967;28;20084;-43
2021/07/08 00:16:01;;;;;;;7.95;4.93;;;;;;;19.97;81.97;100135.44;3468308;28;20104;-44
2021/07/08 00:17:43;;;;;;;10.25;5.05;;;;;;;19.97;81.20;100140.69;3471936;28;20040;-44
2021/07/08 00:19:25;;;;;;;10.82;4.85;;;;;;;19.96;81.72;100133.72;3467968;28;20064;-44
2021/07/08 00:21:06;;;;;;;8.15;4.80;;;;;;;19.96;81.87;100134.59;3470784;28;20136;-43
2021/07/08 00:22:48;;;;;;;13.45;5.95;;;;;;;19.94;82.08;100131.09;3469889;28;20136;-43
2021/07/08 00:24:30;;;;;;;6.15;4.68;;;;;;;19.93;82.36;100132.84;3469834;28;20068;-44
2021/07/08 00:26:11;;;;;;;7.13;4.97;;;;;;;19.90;82.76;100132.94;3470865;28;20045;-44
2021/07/08 00:27:53;;;;;;;6.97;4.45;;;;;;;19.88;82.95;100134.72;3481866;28;20525;-44
2021/07/08 00:29:35;;;;;;;7.28;4.90;;;;;;;19.87;83.26;100132.97;3477364;28;20391;-44
2021/07/08 00:31:18;;;;;;;10.38;4.80;;;;;;;19.85;83.70;100139.16;3481517;28;20084;-43
2021/07/08 00:32:59;;;;;;;9.95;4.40;;;;;;;19.83;83.88;100140.94;3469688;28;20049;-41
2021/07/08 00:34:41;;;;;;;7.82;4.65;;;;;;;19.79;83.93;100134.81;3470149;28;20049;-44
2021/07/08 00:36:23;;;;;;;11.68;4.72;;;;;;;19.77;84.26;100139.25;3481376;28;20537;-44
2021/07/08 00:38:05;;;;;;;8.18;4.50;;;;;;;19.77;84.35;100140.09;3477157;28;20084;-44
2021/07/08 00:39:46;;;;;;;11.23;4.88;;;;;;;19.80;84.50;100135.72;3468063;28;20497;-43
2021/07/08 00:41:27;;;;;;;7.90;4.43;;;;;;;19.81;83.56;100134.78;3471183;28;20073;-45
2021/07/08 00:43:09;;;;;;;15.75;5.05;;;;;;;19.84;82.67;100134.78;3470212;28;20053;-44
2021/07/08 00:44:51;;;;;;;7.80;5.00;;;;;;;19.87;82.97;100132.13;3479877;28;20041;-44
2021/07/08 00:46:32;;;;;;;11.38;4.85;;;;;;;19.89;82.66;100132.94;3482170;28;20091;-43
2021/07/08 00:48:13;;;;;;;5.88;4.55;;;;;;;19.88;82.18;100126.81;3471836;28;20501;-44
2021/07/08 00:49:55;;;;;;;6.03;4.38;;;;;;;19.92;81.45;100128.50;3473221;28;20068;-43
2021/07/08 00:51:36;;;;;;;9.75;4.72;;;;;;;19.94;83.03;100125.84;3484179;28;20080;-43
2021/07/08 00:53:19;;;;;;;6.43;4.55;;;;;;;19.97;82.85;100128.44;3477980;28;20295;-44
2021/07/08 00:55:01;;;;;;;8.38;4.45;;;;;;;19.98;82.13;100127.50;3483692;28;20049;-44
2021/07/08 00:56:42;;;;;;;7.57;5.20;;;;;;;20.02;81.26;100128.31;3473657;28;20053;-44
2021/07/08 00:58:25;;;;;;;10.82;5.35;;;;;;;20.04;81.87;100126.53;3471963;28;20132;-44
2021/07/08 01:00:07;;;;;;;10.15;5.40;;;;;;;20.04;82.00;100129.16;3471945;28;20139;-44
2021/07/08 01:01:51;;;;;;;11.27;5.07;;;;;;;20.06;81.48;100128.25;3473021;28;20148;-44
2021/07/08 01:03:33;;;;;;;8.18;5.07;;;;;;;20.09;81.53;100130.81;3483935;28;20091;-44
2021/07/08 01:05:16;;;;;;;9.88;5.53;;;;;;;20.14;80.65;100128.09;3479626;28;20171;-44
2021/07/08 01:06:58;;;;;;;9.18;5.25;;;;;;;20.17;81.36;100135.09;3483888;28;20056;-44
2021/07/08 01:08:39;;;;;;;5.80;4.88;;;;;;;20.18;80.52;100128.91;3472765;28;20049;-44
2021/07/08 01:10:21;;;;;;;9.30;4.85;;;;;;;20.19;80.32;100133.31;3471509;28;20170;-44
2021/07/08 01:12:03;;;;;;;7.82;5.15;;;;;;;20.19;79.65;100136.81;3482601;28;20194;-44
2021/07/08 01:13:45;;;;;;;9.90;5.40;;;;;;;20.23;80.31;100143.75;3479558;28;20077;-44
2021/07/08 01:15:26;;;;;;;11.82;5.40;;;;;;;20.23;80.65;100137.63;3483481;28;20523;-44
2021/07/08 01:17:10;;;;;;;7.65;4.97;;;;;;;20.25;80.20;100135.81;3475880;28;20515;-44
2021/07/08 01:18:51;;;;;;;10.70;5.88;;;;;;;20.27;79.87;100137.53;3470956;28;20081;-44
2021/07/08 01:20:34;;;;;;;9.07;5.07;;;;;;;20.28;80.06;100136.63;3479829;28;20081;-44
2021/07/08 01:22:16;;;;;;;7.22;5.22;;;;;;;20.31;80.19;100133.09;3480748;28;20045;-44
2021/07/08 01:23:59;;;;;;;8.52;5.38;;;;;;;20.32;79.92;100132.16;3482542;28;20084;-44
2021/07/08 01:25:42;;;;;;;7.80;5.15;;;;;;;20.32;79.38;100140.97;3479446;28;20049;-44
2021/07/08 01:27:24;;;;;;;9.20;5.60;;;;;;;20.32;80.80;100147.97;3483595;28;20496;-44
2021/07/08 01:29:06;;;;;;;11.57;5.00;;;;;;;20.32;80.27;100145.34;3479297;28;20080;-44
2021/07/08 01:30:48;;;;;;;10.88;5.95;;;;;;;20.31;79.38;100148.88;3482752;28;20103;-43
2021/07/08 01:32:29;;;;;;;9.32;5.47;;;;;;;20.32;79.74;100150.59;3471236;28;20462;-43
2021/07/08 01:34:10;;;;;;;9.48;5.60;;;;;;;20.29;79.75;100148.91;3471544;28;20136;-43
2021/07/08 01:35:52;;;;;;;9.07;5.57;;;;;;;20.28;80.57;100148.94;3482927;28;20053;-43
2021/07/08 01:37:34;;;;;;;7.70;5.35;;;;;;;20.29;79.54;100148.91;3478995;28;20081;-44
2021/07/08 01:39:17;;;;;;;7.63;5.10;;;;;;;20.30;79.38;100153.25;3483578;28;20084;-44
2021/07/08 01:40:58;;;;;;;9.88;5.03;;;;;;;20.30;80.17;100155.91;3478964;28;20132;-44
2021/07/08 01:42:40;;;;;;;8.65;5.72;;;;;;;20.30;79.82;100152.41;3482567;28;20540;-45
2021/07/08 01:44:21;;;;;;;6.47;5.30;;;;;;;20.30;79.35;100157.69;3471264;28;20423;-44
2021/07/08 01:46:03;;;;;;;7.88;4.95;;;;;;;20.29;81.09;100148.91;3473044;28;20079;-44
2021/07/08 01:47:46;;;;;;;7.82;5.20;;;;;;;20.29;79.74;100151.56;3483589;28;20045;-44
2021/07/08 01:49:28;;;;;;;11.35;5.32;;;;;;;20.28;79.38;100154.22;3478881;28;20422;-44
2021/07/08 01:51:18;;;;;;;13.02;5.60;;;;;;;20.29;79.09;100156.81;3483556;28;20132;-44
2021/07/08 01:53:00;;;;;;;9.38;5.60;;;;;;;20.29;79.20;100150.69;3476644;28;20095;-44
2021/07/08 01:54:42;;;;;;;9.13;5.55;;;;;;;20.28;79.14;100155.06;3481671;28;20072;-44
2021/07/08 01:56:23;;;;;;;10.63;5.38;;;;;;;20.28;80.15;100162.13;3470591;28;20144;-44
2021/07/08 01:58:04;;;;;;;7.40;5.75;;;;;;;20.26;80.14;100159.50;3472436;28;20498;-45
2021/07/08 01:59:46;;;;;;;9.18;5.20;;;;;;;20.24;79.22;100156.03;3469665;28;20192;-44
2021/07/08 02:01:27;;;;;;;9.15;6.00;;;;;;;20.23;80.14;100159.53;3473227;28;20072;-44
2021/07/08 02:03:09;;;;;;;7.03;5.72;;;;;;;20.21;79.86;100161.34;3469701;28;20050;-44
2021/07/08 02:04:50;;;;;;;7.28;5.45;;;;;;;20.19;79.61;100163.16;3478340;28;20557;-44
2021/07/08 02:06:31;;;;;;;11.70;5.95;;;;;;;20.19;80.19;100162.28;3481424;28;20053;-44
2021/07/08 02:08:14;;;;;;;10.60;6.35;;;;;;;20.17;80.10;100157.03;3480498;28;20509;-44
2021/07/08 02:09:55;;;;;;;10.70;5.82;;;;;;;20.17;81.04;100159.66;3480595;28;20486;-45
2021/07/08 02:11:37;;;;;;;10.73;5.65;;;;;;;20.14;81.28;100165.84;3469407;28;20053;-44
2021/07/08 02:13:18;;;;;;;9.15;5.85;;;;;;;20.14;82.25;100160.59;3474852;28;20060;-44
2021/07/08 02:15:00;;;;;;;8.88;5.55;;;;;;;20.11;82.13;100155.38;3483297;28;20045;-43
2021/07/08 02:16:41;;;;;;;8.80;5.95;;;;;;;20.09;82.28;100162.41;3478949;28;20147;-44
2021/07/08 02:18:24;;;;;;;10.95;5.75;;;;;;;20.04;81.54;100166.94;3481362;28;20101;-46
2021/07/08 02:20:08;;;;;;;10.07;6.27;;;;;;;20.00;81.76;100165.22;3471783;28;20088;-43
2021/07/08 02:21:50;;;;;;;7.68;5.28;;;;;;;20.01;81.59;100160.84;3471735;28;20045;-44
2021/07/08 02:23:33;;;;;;;9.30;5.30;;;;;;;20.00;81.76;100165.22;3483056;28;20049;-43
2021/07/08 02:25:14;;;;;;;14.63;6.88;;;;;;;20.02;82.29;100170.47;3476489;28;20073;-44
2021/07/08 02:26:56;;;;;;;9.00;5.88;;;;;;;20.03;82.64;100172.22;3469416;28;20077;-43
2021/07/08 02:28:39;;;;;;;8.63;5.72;;;;;;;20.04;81.80;100166.94;3472106;28;20085;-43
2021/07/08 02:30:23;;;;;;;8.23;5.88;;;;;;;20.07;82.63;100171.25;3470728;28;20549;-43
2021/07/08 02:32:07;;;;;;;9.93;5.75;;;;;;;20.08;82.85;100175.66;3481479;28;20060;-43
2021/07/08 02:33:48;;;;;;;9.68;6.47;;;;;;;20.08;82.88;100176.50;3478613;28;20053;-43
2021/07/08 02:35:30;;;;;;;10.02;6.30;;;;;;;20.08;82.66;100173.00;3482881;28;20585;-43
2021/07/08 02:37:11;;;;;;;9.73;6.22;;;;;;;20.07;82.19;100177.38;3478172;28;20049;-43
2021/07/08 02:38:54;;;;;;;10.95;6.10;;;;;;;20.06;81.94;100175.66;3482615;28;20087;-43
2021/07/08 02:40:38;;;;;;;10.65;6.10;;;;;;;20.09;82.97;100177.38;3478879;28;20084;-43
2021/07/08 02:42:19;;;;;;;10.75;6.05;;;;;;;20.10;83.18;100179.97;3479326;28;20165;-43
2021/07/08 02:44:02;;;;;;;7.50;5.82;;;;;;;20.14;82.80;100183.44;3470221;28;20537;-43
2021/07/08 02:45:44;;;;;;;12.48;6.63;;;;;;;20.15;83.12;100172.00;3472592;28;20277;-43
2021/07/08 02:47:25;;;;;;;8.93;6.18;;;;;;;20.20;83.44;100179.81;3482693;28;20125;-43
2021/07/08 02:49:11;;;;;;;6.97;5.78;;;;;;;20.22;83.37;100175.38;3480669;28;20053;-43
2021/07/08 02:50:55;;;;;;;12.80;6.20;;;;;;;20.24;82.96;100179.75;3482063;28;20049;-43
2021/07/08 02:52:36;;;;;;;7.65;6.15;;;;;;;20.28;83.17;100170.00;3469319;28;20076;-43
2021/07/08 02:54:18;;;;;;;7.93;6.15;;;;;;;20.32;82.47;100182.22;3471186;28;20081;-43
2021/07/08 02:55:59;;;;;;;9.73;5.85;;;;;;;20.39;82.00;100180.34;3469194;28;20053;-43
2021/07/08 02:57:41;;;;;;;11.93;6.45;;;;;;;20.44;81.90;100178.50;3472004;28;20084;-43
2021/07/08 02:59:22;;;;;;;8.40;5.35;;;;;;;20.50;81.88;100178.38;3482835;28;20080;-43
2021/07/08 03:01:04;;;;;;;10.65;5.57;;;;;;;20.56;81.33;100178.28;3478365;28;20145;-43
2021/07/08 03:02:45;;;;;;;11.65;6.20;;;;;;;20.63;81.21;100176.41;3481859;28;20063;-43
2021/07/08 03:04:28;;;;;;;9.20;5.47;;;;;;;20.70;80.35;100180.66;3480842;28;20053;-43
2021/07/08 03:06:09;;;;;;;9.05;5.65;;;;;;;20.76;80.88;100177.91;3480753;28;20081;-43
2021/07/08 03:07:51;;;;;;;8.90;5.75;;;;;;;20.83;80.18;100178.66;3468955;28;20073;-43
2021/07/08 03:09:33;;;;;;;7.22;5.65;;;;;;;20.88;79.73;100180.28;3471450;28;20052;-43
2021/07/08 03:11:15;;;;;;;11.77;6.07;;;;;;;20.94;80.19;100178.44;3468909;28;20152;-43
2021/07/08 03:12:56;;;;;;;11.27;6.20;;;;;;;21.00;79.87;100184.47;3476769;28;20056;-43
2021/07/08 03:14:38;;;;;;;7.88;5.35;;;;;;;21.06;79.29;100189.59;3481662;28;20049;-44
2021/07/08 03:16:19;;;;;;;10.30;5.90;;;;;;;21.12;79.19;100180.72;3479014;28;20137;-44
2021/07/08 03:18:01;;;;;;;15.80;5.75;;;;;;;21.18;78.95;100180.56;3478921;28;20629;-45
2021/07/08 03:19:42;;;;;;;7.60;5.43;;;;;;;21.22;79.20;100187.53;3481978;28;20058;-43
2021/07/08 03:21:24;;;;;;;9.32;5.38;;;;;;;21.27;78.67;100180.34;3477887;28;20510;-43
2021/07/08 03:23:06;;;;;;;9.50;6.20;;;;;;;21.34;78.59;100188.16;3482337;28;20525;-44
2021/07/08 03:24:48;;;;;;;10.40;5.28;;;;;;;21.39;78.22;100187.13;3472457;28;20073;-44
2021/07/08 03:26:30;;;;;;;8.48;5.43;;;;;;;21.46;78.40;100187.88;3469696;28;20064;-43
2021/07/08 03:28:11;;;;;;;7.90;5.22;;;;;;;21.52;78.09;100185.06;3471402;28;20057;-43
2021/07/08 03:29:52;;;;;;;10.63;5.40;;;;;;;21.59;77.65;100183.16;3471674;28;20076;-43
2021/07/08 03:31:34;;;;;;;9.93;5.20;;;;;;;21.64;77.07;100189.25;3468944;28;20325;-41
2021/07/08 03:33:15;;;;;;;9.38;5.43;;;;;;;21.70;76.19;100191.75;3472827;28;20072;-43
2021/07/08 03:34:57;;;;;;;12.43;5.40;;;;;;;21.76;76.46;100191.59;3482321;28;20059;-44
2021/07/08 03:36:38;;;;;;;10.90;4.93;;;;;;;21.83;76.23;100192.31;3477629;28;20468;-43
2021/07/08 03:38:20;;;;;;;9.07;5.50;;;;;;;21.89;75.05;100193.94;3481769;28;20045;-44
2021/07/08 03:40:03;;;;;;;9.50;5.15;;;;;;;21.95;75.25;100194.66;3471220;28;20053;-43
2021/07/08 03:41:44;;;;;;;14.65;5.38;;;;;;;22.02;74.25;100195.38;3468869;28;20057;-44
2021/07/08 03:43:26;;;;;;;9.65;5.43;;;;;;;22.08;74.13;100195.22;3481183;28;20571;-43
2021/07/08 03:45:10;;;;;;;10.32;5.30;;;;;;;22.13;74.31;100195.09;3476343;28;20055;-43
2021/07/08 03:46:51;;;;;;;7.78;4.75;;;;;;;22.18;73.22;100196.72;3468822;28;20055;-43
2021/07/08 03:48:33;;;;;;;7.18;4.97;;;;;;;22.23;72.06;100193.97;3470762;28;20053;-44
2021/07/08 03:50:15;;;;;;;7.95;4.75;;;;;;;22.30;72.84;100199.94;3469325;28;20049;-44
2021/07/08 03:51:56;;;;;;;8.48;5.03;;;;;;;22.36;72.35;100197.16;3470159;28;20058;-43
2021/07/08 03:53:38;;;;;;;7.93;4.82;;;;;;;22.41;72.61;100195.25;3468723;28;23673;-43
2021/07/08 03:55:21;;;;;;;7.78;5.30;;;;;;;22.46;72.75;100192.50;3481468;28;20128;-43
2021/07/08 03:57:03;;;;;;;10.95;5.60;;;;;;;22.50;72.47;100202.97;3478486;28;20049;-43
2021/07/08 03:58:45;;;;;;;7.13;5.13;;;;;;;22.55;72.02;100200.22;3482287;28;20056;-43
2021/07/08 04:00:30;;;;;;;7.20;5.30;;;;;;;22.64;72.53;100207.03;3476269;28;20055;-43
2021/07/08 04:02:11;;;;;;;9.02;4.57;;;;;;;22.67;70.46;100199.88;3480569;28;20414;-44
2021/07/08 04:03:53;;;;;;;8.13;4.95;;;;;;;22.74;70.41;100208.50;3470118;28;20452;-44
2021/07/08 04:05:36;;;;;;;11.27;5.57;;;;;;;22.81;71.57;100209.19;3469752;28;20052;-44
2021/07/08 04:07:17;;;;;;;7.82;4.80;;;;;;;22.88;70.85;100210.75;3481864;28;20115;-44
2021/07/08 04:08:59;;;;;;;6.53;4.55;;;;;;;22.96;71.24;100209.63;3477585;28;20052;-44
2021/07/08 04:10:42;;;;;;;7.80;4.75;;;;;;;23.04;70.39;100211.19;3482126;28;20048;-44
2021/07/08 04:12:24;;;;;;;5.75;4.82;;;;;;;23.10;70.37;100216.31;3477697;28;20053;-44
2021/07/08 04:14:05;;;;;;;6.43;4.90;;;;;;;23.17;70.94;100219.66;3480378;28;20060;-43
2021/07/08 04:15:48;;;;;;;8.15;4.82;;;;;;;23.23;69.67;100217.66;3470795;28;20050;-43
2021/07/08 04:17:30;;;;;;;9.40;4.97;;;;;;;23.29;70.61;100217.53;3472280;28;20050;-43
2021/07/08 04:19:11;;;;;;;8.68;5.07;;;;;;;23.38;70.20;100219.03;3484450;28;20056;-43
2021/07/08 04:20:52;;;;;;;8.55;5.10;;;;;;;23.45;70.35;100225.03;3477310;28;20111;-44
2021/07/08 04:22:34;;;;;;;8.10;5.50;;;;;;;23.52;70.28;100222.13;3470592;28;20426;-44
2021/07/08 04:24:15;;;;;;;9.75;5.25;;;;;;;23.58;69.59;100220.19;3473099;28;20045;-43
2021/07/08 04:25:57;;;;;;;9.77;5.18;;;;;;;23.67;69.95;100225.22;3471518;28;20053;-43
2021/07/08 04:27:39;;;;;;;6.40;5.30;;;;;;;23.74;69.54;100224.09;3483748;28;20516;-44
2021/07/08 04:29:20;;;;;;;7.38;4.90;;;;;;;23.82;69.71;100226.50;3480643;28;20056;-43
2021/07/08 04:31:02;;;;;;;10.50;4.93;;;;;;;23.88;69.02;100231.59;3470575;28;20056;-44
2021/07/08 04:32:44;;;;;;;10.93;5.97;;;;;;;23.95;68.75;100226.97;3476389;28;20081;-44
2021/07/08 04:34:25;;;;;;;8.10;4.88;;;;;;;24.00;68.03;100230.34;3484242;28;20425;-44
2021/07/08 04:36:07;;;;;;;11.63;5.55;;;;;;;24.04;67.39;100232.81;3479768;28;20056;-44
2021/07/08 04:37:48;;;;;;;6.80;5.03;;;;;;;24.12;68.14;100232.63;3482451;28;20048;-43
2021/07/08 04:39:30;;;;;;;17.80;5.45;;;;;;;24.20;67.64;100232.38;3480539;28;20497;-44
2021/07/08 04:41:12;;;;;;;6.47;5.38;;;;;;;24.26;67.76;100235.69;3478799;28;20051;-44
2021/07/08 04:42:53;;;;;;;8.93;5.03;;;;;;;24.33;66.74;100232.81;3484095;28;20167;-44
2021/07/08 04:44:35;;;;;;;8.30;5.65;;;;;;;24.40;67.46;100234.31;3476996;28;20080;-40
2021/07/08 04:46:17;;;;;;;14.55;5.97;;;;;;;24.46;66.72;100245.59;3470397;28;20584;-43
2021/07/08 04:47:59;;;;;;;9.35;4.80;;;;;;;24.54;66.64;100248.00;3479008;28;20049;-41
2021/07/08 04:49:40;;;;;;;12.82;4.80;;;;;;;24.61;66.57;100244.22;3482346;28;20516;-41
2021/07/08 04:51:22;;;;;;;9.38;5.55;;;;;;;24.67;68.14;100246.63;3480406;28;20103;-44
2021/07/08 04:53:03;;;;;;;10.48;5.40;;;;;;;24.78;67.78;100248.91;3477536;28;20069;-44
2021/07/08 04:54:46;;;;;;;13.82;5.30;;;;;;;24.85;67.36;100254.91;3470365;28;20049;-44
2021/07/08 04:56:28;;;;;;;9.80;5.15;;;;;;;24.92;66.24;100253.75;3475329;28;20048;-41
2021/07/08 04:58:09;;;;;;;8.45;5.30;;;;;;;25.00;65.49;100258.78;3484055;28;20083;-41
2021/07/08 04:59:50;;;;;;;8.70;5.00;;;;;;;25.06;65.49;100261.22;3474651;28;20184;-42
2021/07/08 05:01:32;;;;;;;7.93;5.40;;;;;;;25.15;64.98;100263.53;3469940;28;20088;-41
2021/07/08 05:03:13;;;;;;;7.90;5.53;;;;;;;25.24;65.72;100270.28;3480527;28;20083;-41
2021/07/08 05:04:54;;;;;;;10.68;5.75;;;;;;;25.32;65.03;100265.56;3480661;28;20060;-42
2021/07/08 05:06:36;;;;;;;9.23;4.82;;;;;;;25.41;63.29;100269.66;3470144;28;20081;-43
2021/07/08 05:08:17;;;;;;;9.70;5.22;;;;;;;25.50;64.97;100269.31;3473640;28;20486;-43
2021/07/08 05:09:58;;;;;;;11.73;5.57;;;;;;;25.56;63.75;100261.13;3470379;28;20346;-42
2021/07/08 05:11:42;;;;;;;11.93;5.00;;;;;;;25.66;63.77;100271.41;3478133;28;20099;-42
2021/07/08 05:13:23;;;;;;;10.45;5.63;;;;;;;25.72;62.53;100272.00;3482274;28;20068;-41
2021/07/08 05:15:06;;;;;;;16.98;5.55;;;;;;;25.79;62.75;100272.63;3471028;28;20103;-41
2021/07/08 05:16:47;;;;;;;12.38;5.20;;;;;;;25.87;62.63;100269.69;3473934;28;20048;-41
2021/07/08 05:18:29;;;;;;;12.95;5.00;;;;;;;25.93;62.17;100266.78;3469732;28;20068;-42
2021/07/08 05:20:12;;;;;;;10.93;5.28;;;;;;;26.04;62.84;100263.69;3475065;28;20084;-42
2021/07/08 05:21:55;;;;;;;11.43;5.38;;;;;;;26.12;61.51;100272.22;3484022;28;20284;-42
2021/07/08 05:23:37;;;;;;;8.43;4.95;;;;;;;26.18;60.64;100266.63;3479230;28;20091;-41
2021/07/08 05:25:18;;;;;;;10.95;5.32;;;;;;;26.25;60.44;100269.94;3481767;28;20418;-41
2021/07/08 05:27:00;;;;;;;13.00;5.40;;;;;;;26.33;60.48;100271.34;3480683;28;20597;-41
2021/07/08 05:28:41;;;;;;;10.90;4.88;;;;;;;26.42;60.77;100270.09;3480821;28;20171;-41
2021/07/08 05:30:23;;;;;;;16.00;5.20;;;;;;;26.51;60.55;100271.50;3469981;28;20077;-41
2021/07/08 05:32:05;;;;;;;11.52;4.93;;;;;;;26.59;58.84;100280.03;3475051;28;20049;-41
2021/07/08 05:33:47;;;;;;;12.27;5.13;;;;;;;26.67;58.91;100275.22;3483784;28;20098;-42
2021/07/08 05:35:28;;;;;;;13.20;5.22;;;;;;;26.75;60.27;100277.59;3479282;28;20142;-41
2021/07/08 05:37:10;;;;;;;14.05;4.60;;;;;;;26.82;58.77;100271.06;3480608;28;20072;-41
2021/07/08 05:38:52;;;;;;;9.90;4.40;;;;;;;26.90;55.60;100276.03;3472199;28;20081;-41
2021/07/08 05:40:33;;;;;;;9.70;4.53;;;;;;;26.99;56.16;100280.97;3471689;28;20472;-41
2021/07/08 05:42:15;;;;;;;14.70;4.63;;;;;;;27.06;56.40;100279.75;3483370;28;20102;-41
2021/07/08 05:43:56;;;;;;;9.20;4.38;;;;;;;27.18;56.23;100277.50;3477546;28;20175;-42
2021/07/08 05:45:38;;;;;;;10.40;4.43;;;;;;;27.31;56.37;100281.31;3469636;28;20499;-42
2021/07/08 05:47:19;;;;;;;8.32;4.20;;;;;;;27.44;57.11;100273.63;3478291;28;20084;-42
2021/07/08 05:49:09;;;;;;;6.35;4.00;;;;;;;27.54;54.31;100276.72;3481639;28;20049;-42
2021/07/08 05:50:50;;;;;;;7.38;3.90;;;;;;;27.62;54.44;100279.94;3481274;28;20103;-42
2021/07/08 05:52:32;;;;;;;9.15;4.10;;;;;;;27.68;53.03;100279.63;3477623;28;20057;-42
2021/07/08 05:54:13;;;;;;;10.07;4.47;;;;;;;27.72;52.46;100278.56;3469980;28;20076;-42
2021/07/08 05:55:55;;;;;;;6.97;4.28;;;;;;;27.78;53.74;100278.25;3475752;28;20049;-43
2021/07/08 05:57:37;;;;;;;10.82;3.85;;;;;;;27.82;52.28;100274.50;3483485;28;20091;-42
2021/07/08 05:59:18;;;;;;;8.02;4.22;;;;;;;27.86;52.47;100276.09;3472205;28;20049;-42
2021/07/08 06:00:59;;;;;;;8.50;4.32;;;;;;;27.96;52.32;100276.50;3471235;28;20497;-42
2021/07/08 06:02:41;;;;;;;5.82;4.38;;;;;;;28.05;52.95;100275.19;3480915;28;20087;-42
2021/07/08 06:04:23;;;;;;;5.25;3.92;;;;;;;28.14;52.65;100274.75;3479812;28;20567;-42
2021/07/08 06:06:04;;;;;;;8.82;3.72;;;;;;;28.24;50.81;100283.16;3469563;28;20088;-43
2021/07/08 06:07:46;;;;;;;9.13;4.20;;;;;;;28.29;50.11;100280.28;3471768;28;20080;-42
2021/07/08 06:09:28;;;;;;;10.93;4.00;;;;;;;28.30;50.64;100277.56;3469513;28;20435;-42
2021/07/08 06:11:09;;;;;;;5.78;3.42;;;;;;;28.30;48.64;100280.22;3479260;28;20073;-43
2021/07/08 06:12:51;;;;;;;12.35;4.35;;;;;;;28.32;50.69;100282.78;3481654;28;20091;-43
2021/07/08 06:14:33;;;;;;;8.93;4.43;;;;;;;28.34;50.67;100278.25;3470079;28;20057;-42
2021/07/08 06:16:15;;;;;;;9.57;4.05;;;;;;;28.41;51.59;100277.00;3472207;28;20266;-43
2021/07/08 06:17:57;;;;;;;7.72;4.13;;;;;;;28.54;51.96;100279.91;3483189;28;20060;-42
2021/07/08 06:19:38;;;;;;;9.43;3.63;;;;;;;28.63;49.91;100281.25;3478670;28;20496;-42
2021/07/08 06:21:19;;;;;;;9.75;3.90;;;;;;;28.72;50.41;100281.59;3483111;28;20520;-42
2021/07/08 06:23:01;;;;;;;9.65;4.00;;;;;;;28.75;49.24;100278.78;3473267;28;20045;-43
2021/07/08 06:24:43;;;;;;;8.70;3.97;;;;;;;28.81;49.58;100285.59;3471600;28;20072;-43
2021/07/08 06:26:24;;;;;;;7.03;3.83;;;;;;;28.89;50.40;100288.75;3482878;28;20057;-42
2021/07/08 06:28:06;;;;;;;11.02;4.10;;;;;;;28.91;48.96;100289.56;3478715;28;20554;-43
2021/07/08 06:29:48;;;;;;;13.15;4.50;;;;;;;28.87;49.67;100295.13;3469475;28;20080;-42
2021/07/08 06:31:29;;;;;;;9.45;3.90;;;;;;;28.87;50.13;100295.13;3474940;28;20517;-43
2021/07/08 06:33:11;;;;;;;10.00;4.40;;;;;;;28.89;51.12;100303.94;3482926;28;20052;-42
2021/07/08 06:34:52;;;;;;;13.65;4.45;;;;;;;29.02;49.78;100298.81;3472915;28;20053;-43
2021/07/08 06:36:33;;;;;;;11.00;4.22;;;;;;;29.09;48.19;100305.56;3470403;28;20471;-43
2021/07/08 06:38:15;;;;;;;8.38;3.83;;;;;;;29.13;49.35;100301.78;3471319;28;20057;-43
2021/07/08 06:39:56;;;;;;;11.25;4.25;;;;;;;29.22;49.57;100314.66;3470750;28;20081;-43
2021/07/08 06:41:38;;;;;;;8.98;4.15;;;;;;;29.35;48.88;100301.50;3482807;28;20080;-43
2021/07/08 06:43:20;;;;;;;8.75;3.90;;;;;;;29.46;47.21;100300.91;3476033;28;20084;-43
2021/07/08 06:45:02;;;;;;;10.57;4.30;;;;;;;29.55;47.35;100298.63;3469349;28;20073;-43
2021/07/08 06:46:49;;;;;;;9.02;4.63;;;;;;;29.67;47.76;100304.25;3472851;28;20057;-43
2021/07/08 06:48:31;;;;;;;8.30;3.92;;;;;;;29.78;47.42;100306.31;3470698;28;20602;-43
2021/07/08 06:50:13;;;;;;;7.68;3.65;;;;;;;29.89;46.96;100306.56;3480970;28;20095;-43
2021/07/08 06:51:54;;;;;;;9.45;4.10;;;;;;;29.96;45.81;100305.28;3478464;28;21033;-43
2021/07/08 06:53:38;;;;;;;8.27;3.90;;;;;;;30.06;46.05;100308.28;3469423;28;20095;-43
2021/07/08 06:55:19;;;;;;;12.48;4.28;;;;;;;30.16;46.34;100304.16;3475695;28;20147;-43
2021/07/08 06:57:00;;;;;;;12.88;3.65;;;;;;;30.20;44.77;100305.72;3482451;28;20198;-43
2021/07/08 06:58:42;;;;;;;9.80;3.70;;;;;;;30.11;44.25;100301.72;3472021;28;20550;-43
2021/07/08 07:00:26;;;;;;;11.73;4.13;;;;;;;30.14;44.65;100308.72;3470807;28;20073;-43
2021/07/08 07:02:07;;;;;;;;;;;;;;;30.25;45.76;100305.44;3481546;28;20049;-44
2021/07/08 07:03:48;;;;;;;5.57;3.63;;;;;;;30.35;46.68;100312.00;3478081;28;19983;-43
2021/07/08 07:05:30;;;;;;;7.65;3.70;;;;;;;30.38;44.90;100306.44;3482701;28;20095;-43
2021/07/08 07:07:14;;;;;;;13.98;4.28;;;;;;;30.49;45.10;100308.53;3478102;28;20072;-43
2021/07/08 07:08:56;;;;;;;7.55;3.95;;;;;;;30.48;43.88;100306.78;3482221;28;20457;-43
2021/07/08 07:10:37;;;;;;;4.63;3.50;;;;;;;30.44;42.13;100299.88;3478597;28;20107;-44
2021/07/08 07:12:18;;;;;;;10.45;3.78;;;;;;;30.43;42.91;100304.34;3479793;28;20643;-43
2021/07/08 07:14:01;;;;;;;10.23;4.10;;;;;;;30.50;43.73;100304.88;3469848;28;20095;-43
2021/07/08 07:15:42;;;;;;;9.80;3.63;;;;;;;30.59;43.44;100308.81;3471636;28;20082;-43
2021/07/08 07:17:24;;;;;;;9.77;3.90;;;;;;;30.70;44.01;100317.06;3468711;28;20049;-44
2021/07/08 07:19:05;;;;;;;6.07;3.47;;;;;;;30.86;43.17;100306.31;3471065;28;20383;-43
2021/07/08 07:20:46;;;;;;;9.13;4.10;;;;;;;30.99;43.21;100315.34;3469940;28;20403;-43
2021/07/08 07:22:27;;;;;;;7.10;3.63;;;;;;;31.03;41.82;100310.66;3478122;28;20060;-43
2021/07/08 07:24:09;;;;;;;7.93;3.53;;;;;;;31.13;44.26;100319.00;3479890;28;20475;-43
2021/07/08 07:25:50;;;;;;;6.60;3.40;;;;;;;31.20;43.69;100315.00;3480812;28;20087;-44
2021/07/08 07:27:32;;;;;;;8.25;3.67;;;;;;;31.24;42.50;100317.38;3477062;28;20060;-43
2021/07/08 07:29:14;;;;;;;12.93;3.80;;;;;;;31.27;40.49;100315.44;3468918;28;20050;-45
2021/07/08 07:30:56;;;;;;;7.03;3.53;;;;;;;31.27;40.40;100310.97;3475414;28;20048;-43
2021/07/08 07:32:37;;;;;;;6.30;3.50;;;;;;;31.37;43.44;100313.94;3481985;28;20289;-44
2021/07/08 07:34:20;;;;;;;13.40;4.70;;;;;;;31.45;43.18;100322.38;3470828;28;20061;-43
2021/07/08 07:36:02;;;;;;;11.13;3.53;;;;;;;31.56;41.19;100322.56;3470478;28;20052;-42
2021/07/08 07:37:44;;;;;;;9.02;3.50;;;;;;;31.63;41.07;100312.31;3480645;28;20049;-43
2021/07/08 07:39:25;;;;;;;8.55;3.25;;;;;;;31.66;40.76;100320.16;3476375;28;20076;-43
2021/07/08 07:41:07;;;;;;;6.30;3.30;;;;;;;31.69;39.51;100319.97;3482604;28;20091;-43
2021/07/08 07:42:49;;;;;;;10.43;3.38;;;;;;;31.75;39.39;100321.41;3473257;28;20060;-42
2021/07/08 07:44:32;;;;;;;9.07;3.70;;;;;;;31.72;39.55;100317.06;3469011;28;20049;-43
2021/07/08 07:46:13;;;;;;;8.57;3.13;;;;;;;31.81;40.00;100319.19;3478357;28;20080;-43
2021/07/08 07:47:55;;;;;;;10.23;3.33;;;;;;;31.86;40.95;100315.34;3479467;28;20049;-42
2021/07/08 07:49:36;;;;;;;13.07;3.67;;;;;;;31.76;39.24;100315.06;3469328;28;20476;-43
2021/07/08 07:51:18;;;;;;;8.15;3.38;;;;;;;31.55;39.09;100323.53;3475916;28;20076;-43